Time;durP1;ratioP1;P1;durP2;ratioP2;P2;SDS_P1;SDS_P2;PMS_P1;PMS_P2;Temp;Humidity;BMP_temperature;BMP_pressure;BME280_temperature;BME280_humidity;BME280_pressure;Samples;Min_cycle;Max_cycle;Signal;HPM_P1;HPM_P2
2023/03/31 00:01:35;;;;;;;4.60;1.25;;;;;;;14.58;42.05;100624.50;5024597;28;20057;-70
2023/03/31 00:04:03;;;;;;;2.40;1.05;;;;;;;14.60;41.58;100629.75;5013654;28;20513;-72
2023/03/31 00:06:36;;;;;;;6.10;1.10;;;;;;;14.59;40.78;100634.09;5023553;28;20535;-72
2023/03/31 00:09:14;;;;;;;5.55;1.02;;;;;;;14.57;40.49;100637.53;5019735;28;20499;-71
2023/03/31 00:11:43;;;;;;;3.80;1.33;;;;;;;14.57;41.60;100633.19;5021935;28;20046;-72
2023/03/31 00:14:12;;;;;;;6.78;1.42;;;;;;;14.61;42.28;100639.28;5022021;28;20563;-71
2023/03/31 00:16:41;;;;;;;2.17;1.15;;;;;;;14.54;40.73;100642.66;5029343;28;20049;-71
2023/03/31 00:19:16;;;;;;;3.25;1.00;;;;;;;14.49;40.97;100644.34;5026056;28;20113;-71
2023/03/31 00:21:46;;;;;;;4.35;1.20;;;;;;;14.32;40.35;100650.22;5031953;28;20053;-73
2023/03/31 00:24:17;;;;;;;3.80;1.10;;;;;;;14.25;41.92;100656.19;5025917;28;20077;-69
2023/03/31 00:26:45;;;;;;;4.00;1.00;;;;;;;14.18;42.73;100660.44;5026731;28;20062;-71
2023/03/31 00:29:15;;;;;;;4.22;1.13;;;;;;;14.03;41.71;100653.28;5023736;28;20052;-71
2023/03/31 00:31:43;;;;;;;5.85;1.20;;;;;;;13.97;42.28;100666.22;5024678;28;20088;-72
2023/03/31 00:34:11;;;;;;;3.78;0.90;;;;;;;13.95;41.17;100669.63;5031841;28;20051;-72
2023/03/31 00:36:46;;;;;;;5.10;1.70;;;;;;;13.95;42.32;100670.53;5029128;28;20117;-72
2023/03/31 00:39:17;;;;;;;6.30;1.50;;;;;;;13.92;43.85;100670.47;5024320;28;20491;-70
2023/03/31 00:41:46;;;;;;;4.15;1.00;;;;;;;13.92;43.46;100672.22;5023644;28;20108;-71
2023/03/31 00:44:17;;;;;;;3.63;1.17;;;;;;;13.89;43.86;100673.03;5028121;28;20070;-71
2023/03/31 00:46:52;;;;;;;4.85;1.23;;;;;;;13.85;43.05;100676.44;5029448;28;20578;-70
2023/03/31 00:49:26;;;;;;;5.07;0.95;;;;;;;13.79;42.91;100678.97;5024259;28;20058;-70
2023/03/31 00:51:59;;;;;;;2.20;0.93;;;;;;;13.74;44.39;100686.72;5023456;28;20125;-70
2023/03/31 00:54:32;;;;;;;3.13;1.33;;;;;;;13.67;42.81;100686.56;5020768;28;20053;-73
2023/03/31 00:57:02;;;;;;;2.20;1.20;;;;;;;13.55;43.26;100680.31;5026957;28;20124;-72
2023/03/31 00:59:35;;;;;;;3.03;0.98;;;;;;;13.46;44.42;100682.78;5025157;28;20050;-71
2023/03/31 01:02:04;;;;;;;4.63;1.67;;;;;;;13.34;43.93;100692.97;5025878;28;20115;-73
2023/03/31 01:04:39;;;;;;;3.50;1.30;;;;;;;13.24;44.03;100691.00;5029786;28;20049;-70
2023/03/31 01:07:15;;;;;;;7.43;1.75;;;;;;;13.12;44.92;100687.34;5023859;28;20064;-72
2023/03/31 01:09:47;;;;;;;8.23;1.48;;;;;;;13.15;44.76;100703.00;5017079;28;20753;-70
2023/03/31 01:12:19;;;;;;;3.60;0.90;;;;;;;13.15;44.11;100703.00;5020605;28;20049;-70
2023/03/31 01:14:49;;;;;;;3.22;1.05;;;;;;;13.11;44.71;100698.59;5016659;28;20046;-71
2023/03/31 01:17:20;;;;;;;3.58;1.13;;;;;;;13.05;44.75;100701.06;5027020;28;20115;-72
2023/03/31 01:20:10;;;;;;;4.05;1.20;;;;;;;12.98;44.33;100704.41;5019602;28;20046;-73
2023/03/31 01:23:12;;;;;;;2.70;1.00;;;;;;;12.92;44.50;100714.69;5023006;28;20495;-72
2023/03/31 01:26:19;;;;;;;6.13;1.00;;;;;;;12.86;44.29;100714.56;5024319;28;20085;-76
2023/03/31 01:28:56;;;;;;;2.95;1.20;;;;;;;12.74;45.53;100716.06;5016875;28;20053;-74
2023/03/31 01:31:44;;;;;;;3.83;1.20;;;;;;;12.72;45.55;100717.75;5030525;28;20579;-73
2023/03/31 01:34:47;;;;;;;7.20;1.30;;;;;;;12.58;45.49;100724.41;5025182;28;20129;-73
2023/03/31 01:37:58;;;;;;;2.50;1.13;;;;;;;12.46;44.74;100734.50;5027015;28;20129;-74
2023/03/31 01:40:53;;;;;;;6.13;1.27;;;;;;;12.32;45.30;100737.69;4927358;28;20047;-73
2023/03/31 01:43:27;;;;;;;7.50;1.80;;;;;;;12.27;46.38;100736.69;5021619;28;20063;-71
2023/03/31 01:46:02;;;;;;;4.50;1.52;;;;;;;12.19;46.14;100725.28;5030354;28;20118;-72
2023/03/31 01:48:41;;;;;;;6.43;1.15;;;;;;;12.20;46.25;100728.75;5021899;28;20060;-74
2023/03/31 01:51:16;;;;;;;7.53;1.50;;;;;;;12.21;47.45;100734.00;5025674;28;20060;-72
2023/03/31 01:53:51;;;;;;;1.90;0.88;;;;;;;12.19;48.05;100742.59;5016906;28;20052;-74
2023/03/31 01:56:26;;;;;;;6.70;1.30;;;;;;;12.12;46.44;100744.16;5024924;28;20045;-75
2023/03/31 01:58:59;;;;;;;1.95;1.10;;;;;;;12.05;47.74;100742.22;5025674;28;20045;-73
2023/03/31 02:01:36;;;;;;;7.15;2.03;;;;;;;12.02;47.93;100742.19;5017035;28;20073;-72
2023/03/31 02:04:10;;;;;;;5.82;1.40;;;;;;;11.96;47.89;100748.09;5018103;28;20144;-75
2023/03/31 02:06:42;;;;;;;4.15;0.98;;;;;;;11.84;48.11;100747.75;5020489;28;20611;-74
2023/03/31 02:09:14;;;;;;;8.00;2.05;;;;;;;11.74;48.97;100741.47;5023799;28;20071;-73
2023/03/31 02:11:46;;;;;;;6.28;1.50;;;;;;;11.67;48.80;100755.13;5020294;28;20636;-74
2023/03/31 02:14:20;;;;;;;6.83;1.30;;;;;;;11.63;49.52;100758.47;5025668;28;20824;-74
2023/03/31 02:16:51;;;;;;;4.68;1.48;;;;;;;11.56;49.12;100761.75;5025575;28;20567;-75
2023/03/31 02:19:22;;;;;;;4.28;1.17;;;;;;;11.49;49.63;100761.59;5020854;28;20081;-75
2023/03/31 02:21:51;;;;;;;7.82;1.48;;;;;;;11.39;49.75;100763.94;5018900;28;20045;-77
2023/03/31 02:24:24;;;;;;;5.78;1.10;;;;;;;11.32;50.33;100774.13;5013505;28;20088;-76
2023/03/31 02:26:55;;;;;;;;;;;;;;;11.28;50.65;100769.69;5020963;28;20045;-72
2023/03/31 02:29:24;;;;;;;5.47;1.52;;;;;;;11.25;50.75;100781.69;5026731;28;20547;-76
2023/03/31 02:31:59;;;;;;;3.63;1.27;;;;;;;11.10;51.32;100762.28;5018500;28;20061;-72
2023/03/31 02:34:28;;;;;;;8.18;1.27;;;;;;;11.13;51.60;100776.16;5028971;28;20120;-73
2023/03/31 02:36:56;;;;;;;7.18;1.35;;;;;;;11.07;51.55;100782.94;5027068;28;20049;-75
2023/03/31 02:39:29;;;;;;;4.32;1.75;;;;;;;11.05;51.91;100788.91;5026263;28;20107;-74
2023/03/31 02:42:01;;;;;;;;;;;;;;;11.00;51.54;100783.59;5017452;28;20135;-73
2023/03/31 02:44:29;;;;;;;2.30;1.05;;;;;;;10.96;50.67;100784.34;5023590;28;19955;-75
2023/03/31 02:46:58;;;;;;;6.40;1.08;;;;;;;10.92;50.67;100782.50;5017736;28;20511;-74
2023/03/31 02:49:26;;;;;;;7.03;1.17;;;;;;;10.86;50.95;100784.94;5022076;28;20055;-74
2023/03/31 02:52:17;;;;;;;5.07;1.83;;;;;;;10.81;51.53;100791.66;5020431;28;20051;-71
2023/03/31 02:55:26;;;;;;;7.72;1.90;;;;;;;10.74;52.24;100793.19;5029003;28;20431;-72
2023/03/31 02:58:23;;;;;;;10.27;2.95;;;;;;;10.70;51.97;100793.94;5027097;28;20075;-73
2023/03/31 03:01:05;;;;;;;6.63;1.85;;;;;;;10.68;51.86;100799.06;5022374;28;20162;-73
2023/03/31 03:03:43;;;;;;;8.07;1.93;;;;;;;10.67;52.69;100802.50;5025660;28;20574;-72
2023/03/31 03:06:24;;;;;;;3.25;1.55;;;;;;;10.64;52.14;100801.53;5024391;28;20148;-73
2023/03/31 03:09:10;;;;;;;6.05;1.77;;;;;;;10.56;51.73;100808.16;5016826;28;20140;-72
2023/03/31 03:11:45;;;;;;;2.70;1.13;;;;;;;10.52;53.08;100811.50;5022176;28;20066;-73
2023/03/31 03:14:26;;;;;;;2.78;1.27;;;;;;;10.49;53.07;100804.53;5011651;28;20278;-74
2023/03/31 03:17:02;;;;;;;8.38;1.30;;;;;;;10.46;52.10;100812.19;5019509;28;20056;-74
2023/03/31 03:19:30;;;;;;;4.97;0.95;;;;;;;10.40;52.19;100812.88;5019748;28;20052;-72
2023/03/31 03:21:59;;;;;;;3.72;1.15;;;;;;;10.35;52.07;100818.72;5021178;28;20045;-74
2023/03/31 03:24:29;;;;;;;5.28;1.10;;;;;;;10.33;52.88;100821.28;5020847;28;20136;-72
2023/03/31 03:26:58;;;;;;;2.65;0.77;;;;;;;10.32;52.99;100818.66;5027919;28;20152;-74
2023/03/31 03:29:28;;;;;;;11.40;1.70;;;;;;;10.23;52.98;100817.47;5023011;28;20935;-74
2023/03/31 03:31:56;;;;;;;3.83;1.05;;;;;;;10.24;53.89;100819.25;5024819;28;20045;-74
2023/03/31 03:34:25;;;;;;;8.98;1.48;;;;;;;10.22;54.77;100833.84;5016034;28;20049;-73
2023/03/31 03:36:54;;;;;;;7.00;1.38;;;;;;;10.18;53.90;100839.72;5022934;28;20050;-74
2023/03/31 03:39:23;;;;;;;2.55;0.90;;;;;;;10.13;54.67;100843.00;5033656;28;20084;-75
2023/03/31 03:41:51;;;;;;;2.58;1.23;;;;;;;10.08;53.99;100845.44;5019603;28;20080;-74
2023/03/31 03:44:19;;;;;;;6.97;1.38;;;;;;;10.04;54.36;100857.38;5026178;28;20098;-74
2023/03/31 03:46:50;;;;;;;7.63;1.33;;;;;;;10.02;54.61;100858.16;5017682;28;20058;-75
2023/03/31 03:49:19;;;;;;;6.75;1.73;;;;;;;9.98;54.72;100858.88;5021353;28;20049;-74
2023/03/31 03:51:47;;;;;;;4.28;1.17;;;;;;;9.90;55.91;100855.19;5016225;28;20049;-76
2023/03/31 03:54:16;;;;;;;5.55;1.00;;;;;;;9.90;56.21;100868.09;5025602;28;20045;-80
2023/03/31 03:56:45;;;;;;;5.80;1.52;;;;;;;9.87;56.79;100871.44;5020428;28;20104;-76
2023/03/31 03:59:14;;;;;;;4.45;1.15;;;;;;;9.84;56.07;100879.97;5023948;28;20374;-76
2023/03/31 04:01:42;;;;;;;3.50;0.95;;;;;;;9.80;56.92;100880.72;5013346;28;20049;-77
2023/03/31 04:04:12;;;;;;;3.78;1.38;;;;;;;9.79;56.96;100881.53;5028078;28;20160;-74
2023/03/31 04:06:41;;;;;;;7.40;1.35;;;;;;;9.78;57.26;100881.47;5021733;28;20119;-74
2023/03/31 04:09:10;;;;;;;8.50;1.10;;;;;;;9.72;57.87;100889.88;5023469;28;20085;-73
2023/03/31 04:11:38;;;;;;;9.55;1.58;;;;;;;9.68;57.78;100895.75;5026398;28;20495;-73
2023/03/31 04:14:07;;;;;;;2.58;0.75;;;;;;;9.64;58.18;100883.56;5016887;28;20206;-72
2023/03/31 04:16:37;;;;;;;4.97;1.10;;;;;;;9.60;58.58;100889.47;5018940;28;20052;-77
2023/03/31 04:19:07;;;;;;;5.63;1.50;;;;;;;9.55;58.78;100894.47;5013304;28;20489;-74
2023/03/31 04:21:43;;;;;;;6.07;1.30;;;;;;;9.53;59.34;100893.53;5021308;28;20151;-73
2023/03/31 04:24:20;;;;;;;3.33;0.90;;;;;;;9.42;59.36;100877.63;5027554;28;20072;-74
2023/03/31 04:26:49;;;;;;;8.73;1.45;;;;;;;9.49;59.25;100895.94;5022132;28;20049;-73
2023/03/31 04:29:19;;;;;;;6.43;1.08;;;;;;;9.47;59.16;100902.75;5021034;28;20124;-74
2023/03/31 04:31:57;;;;;;;5.35;0.88;;;;;;;9.46;59.17;100903.56;5023167;28;20045;-71
2023/03/31 04:34:33;;;;;;;4.88;1.17;;;;;;;9.43;60.19;100910.38;5024086;28;20104;-72
2023/03/31 04:37:04;;;;;;;3.92;0.93;;;;;;;9.40;60.67;100899.94;5020861;28;20088;-74
2023/03/31 04:39:32;;;;;;;2.40;1.17;;;;;;;9.38;60.60;100911.91;5021719;28;20109;-74
2023/03/31 04:42:02;;;;;;;2.33;0.93;;;;;;;9.35;61.14;100900.63;5023253;28;20041;-74
2023/03/31 04:44:30;;;;;;;4.63;1.00;;;;;;;9.34;60.52;100910.03;5019264;28;20108;-75
2023/03/31 04:47:01;;;;;;;10.88;1.55;;;;;;;9.29;60.69;100906.41;5022794;28;20052;-76
2023/03/31 04:49:32;;;;;;;5.30;1.50;;;;;;;9.16;60.56;100902.50;5022219;28;20066;-74
2023/03/31 04:52:03;;;;;;;4.07;1.52;;;;;;;9.18;61.21;100915.47;5021417;28;20053;-78
2023/03/31 04:54:31;;;;;;;6.03;1.20;;;;;;;9.14;60.74;100914.47;5018079;28;20056;-75
2023/03/31 04:57:00;;;;;;;7.40;1.48;;;;;;;9.10;60.83;100924.63;5020303;28;20056;-75
2023/03/31 04:59:28;;;;;;;4.57;1.17;;;;;;;9.03;61.86;100918.34;5033118;28;20050;-73
2023/03/31 05:01:57;;;;;;;6.97;1.48;;;;;;;8.91;61.26;100900.72;5021671;28;20141;-74
2023/03/31 05:04:25;;;;;;;3.53;0.85;;;;;;;8.91;62.31;100918.78;5012123;28;20646;-73
2023/03/31 05:06:54;;;;;;;3.95;1.20;;;;;;;8.84;62.85;100913.28;5016682;28;20041;-73
2023/03/31 05:09:24;;;;;;;3.70;1.17;;;;;;;8.70;63.24;100913.63;5024398;28;20132;-74
2023/03/31 05:11:53;;;;;;;8.80;1.60;;;;;;;8.64;64.26;100922.84;5025810;28;20140;-74
2023/03/31 05:14:21;;;;;;;2.88;0.98;;;;;;;8.58;64.50;100923.47;5026569;28;20128;-74
2023/03/31 05:16:50;;;;;;;6.20;0.98;;;;;;;8.53;66.41;100920.69;5026388;28;20077;-73
2023/03/31 05:19:18;;;;;;;4.80;1.40;;;;;;;8.47;65.72;100917.88;5025649;28;20045;-74
2023/03/31 05:21:47;;;;;;;5.90;1.02;;;;;;;8.41;67.08;100917.63;5028434;28;20065;-74
2023/03/31 05:24:16;;;;;;;6.03;1.27;;;;;;;8.35;68.12;100914.75;5024244;28;20054;-72
2023/03/31 05:26:51;;;;;;;4.78;1.13;;;;;;;8.28;67.67;100917.91;5023045;28;20042;-74
2023/03/31 05:29:20;;;;;;;8.90;1.80;;;;;;;8.24;68.13;100924.63;5020829;28;20069;-74
2023/03/31 05:31:48;;;;;;;8.75;1.40;;;;;;;8.21;68.96;100921.06;5024471;28;20072;-74
2023/03/31 05:34:17;;;;;;;6.50;1.20;;;;;;;8.12;69.28;100912.09;5025233;28;20049;-74
2023/03/31 05:36:46;;;;;;;6.78;1.75;;;;;;;8.19;69.59;100921.84;5020671;28;20665;-74
2023/03/31 05:39:15;;;;;;;3.15;1.30;;;;;;;8.18;69.85;100925.25;5025131;28;20145;-74
2023/03/31 05:41:45;;;;;;;10.40;1.55;;;;;;;8.11;71.02;100925.81;5025597;28;20056;-73
2023/03/31 05:44:14;;;;;;;2.20;0.98;;;;;;;8.05;71.76;100924.69;5025184;28;20177;-73
2023/03/31 05:46:42;;;;;;;9.75;1.48;;;;;;;8.02;72.17;100937.41;5024223;28;20145;-74
2023/03/31 05:49:11;;;;;;;7.82;1.00;;;;;;;8.00;72.35;100936.50;5021701;28;20073;-75
2023/03/31 05:51:40;;;;;;;5.95;1.55;;;;;;;7.95;72.81;100933.72;5018162;28;20116;-74
2023/03/31 05:54:08;;;;;;;3.10;1.13;;;;;;;7.93;72.74;100925.03;5020186;28;20081;-74
2023/03/31 05:56:37;;;;;;;7.18;1.35;;;;;;;7.93;73.05;100932.78;5022846;28;20041;-74
2023/03/31 05:59:07;;;;;;;3.88;1.02;;;;;;;7.90;73.14;100935.19;5018054;28;20132;-74
2023/03/31 06:01:35;;;;;;;2.28;1.38;;;;;;;7.87;74.13;100938.53;5022868;28;20046;-74
2023/03/31 06:04:04;;;;;;;1.98;1.17;;;;;;;7.88;73.58;100931.66;5023351;28;20495;-75
2023/03/31 06:06:33;;;;;;;4.78;1.42;;;;;;;7.88;73.67;100931.66;5018408;28;20041;-75
2023/03/31 06:09:02;;;;;;;5.97;1.02;;;;;;;7.85;74.82;100935.00;5019462;28;20490;-73
2023/03/31 06:11:31;;;;;;;3.22;1.15;;;;;;;7.86;74.14;100928.19;5018560;28;20045;-73
2023/03/31 06:13:59;;;;;;;10.63;1.73;;;;;;;7.86;75.23;100925.59;5021544;28;20064;-73
2023/03/31 06:16:29;;;;;;;3.97;1.08;;;;;;;7.86;75.37;100928.19;5023859;28;20080;-73
2023/03/31 06:18:58;;;;;;;6.50;1.40;;;;;;;7.85;75.59;100926.41;5023806;28;20050;-74
2023/03/31 06:21:26;;;;;;;3.65;0.98;;;;;;;7.83;75.79;100930.59;5018754;28;20168;-75
2023/03/31 06:23:57;;;;;;;4.97;1.27;;;;;;;7.85;76.30;100934.13;5016121;28;20069;-75
2023/03/31 06:26:26;;;;;;;4.80;1.25;;;;;;;7.84;76.24;100925.53;5024127;28;20049;-74
2023/03/31 06:28:55;;;;;;;3.33;0.90;;;;;;;7.81;76.59;100925.41;5026477;28;20048;-73
2023/03/31 06:31:24;;;;;;;4.53;1.20;;;;;;;7.71;77.34;100918.94;5025052;28;20116;-73
2023/03/31 06:33:55;;;;;;;6.95;1.30;;;;;;;7.65;78.38;100918.69;5022008;28;20051;-74
2023/03/31 06:36:23;;;;;;;3.83;1.20;;;;;;;7.63;79.47;100925.47;5022373;28;20053;-73
2023/03/31 06:38:52;;;;;;;7.78;1.35;;;;;;;7.64;79.63;100927.22;5019231;28;20053;-74
2023/03/31 06:41:21;;;;;;;2.47;1.20;;;;;;;7.64;80.05;100931.50;5024297;28;20073;-74
2023/03/31 06:43:50;;;;;;;5.28;1.17;;;;;;;7.62;80.26;100934.00;5024743;28;20172;-74
2023/03/31 06:46:18;;;;;;;10.00;1.80;;;;;;;7.59;81.16;100931.31;5022138;28;20141;-73
2023/03/31 06:48:47;;;;;;;5.00;1.23;;;;;;;7.55;81.86;100926.81;5028737;28;20049;-74
2023/03/31 06:51:17;;;;;;;6.65;1.35;;;;;;;7.51;83.02;100924.91;5020977;28;20494;-73
2023/03/31 06:53:45;;;;;;;9.77;1.20;;;;;;;7.51;83.26;100932.63;5021024;28;20467;-74
2023/03/31 06:56:14;;;;;;;4.20;1.55;;;;;;;7.50;83.31;100933.47;5018833;28;20044;-74
2023/03/31 06:58:43;;;;;;;5.65;1.33;;;;;;;7.44;83.21;100933.19;5019473;28;20139;-73
2023/03/31 07:01:12;;;;;;;6.43;1.77;;;;;;;7.43;82.32;100932.31;5021929;28;20045;-74
2023/03/31 07:03:40;;;;;;;8.38;2.40;;;;;;;7.44;82.26;100934.06;5025078;28;20048;-74
2023/03/31 07:06:09;;;;;;;6.22;1.15;;;;;;;7.47;82.85;100925.63;5022742;28;20160;-74
2023/03/31 07:08:39;;;;;;;5.88;1.40;;;;;;;7.46;80.83;100935.00;5019713;28;20057;-74
2023/03/31 07:11:08;;;;;;;5.07;1.42;;;;;;;7.47;80.44;100930.75;5021528;28;20041;-75
2023/03/31 07:13:36;;;;;;;6.35;1.20;;;;;;;7.49;80.22;100934.25;5024978;28;20053;-74
2023/03/31 07:16:06;;;;;;;3.20;1.38;;;;;;;7.47;80.77;100928.19;5024670;28;20069;-74
2023/03/31 07:18:35;;;;;;;5.10;1.05;;;;;;;7.45;80.36;100929.81;5019734;28;20045;-74
2023/03/31 07:21:04;;;;;;;8.45;1.38;;;;;;;7.46;80.10;100929.00;5018125;28;20088;-73
2023/03/31 07:23:32;;;;;;;4.88;1.23;;;;;;;7.47;80.26;100923.03;5021366;28;20058;-73
2023/03/31 07:26:03;;;;;;;8.25;1.48;;;;;;;7.46;80.64;100926.41;5023972;28;20084;-74
2023/03/31 07:28:31;;;;;;;8.88;1.33;;;;;;;7.45;80.09;100919.50;5022541;28;20038;-74
2023/03/31 07:31:06;;;;;;;2.22;1.20;;;;;;;7.46;80.56;100921.25;5020381;28;20153;-74
2023/03/31 07:33:36;;;;;;;6.65;1.45;;;;;;;7.44;81.55;100918.59;5018262;28;20132;-74
2023/03/31 07:36:06;;;;;;;3.97;1.02;;;;;;;7.44;80.66;100915.16;5020908;28;20080;-73
2023/03/31 07:38:34;;;;;;;4.25;1.30;;;;;;;7.44;81.42;100922.88;5018757;28;20141;-73
2023/03/31 07:41:05;;;;;;;6.32;1.48;;;;;;;7.44;81.23;100922.88;5017514;28;20476;-74
2023/03/31 07:43:34;;;;;;;5.80;1.23;;;;;;;7.41;80.25;100923.63;5019873;28;20051;-75
2023/03/31 07:46:04;;;;;;;7.70;1.27;;;;;;;7.42;80.43;100924.50;5020060;28;20053;-74
2023/03/31 07:48:32;;;;;;;7.25;1.73;;;;;;;7.42;81.51;100927.06;5019266;28;20596;-75
2023/03/31 07:51:01;;;;;;;2.30;0.98;;;;;;;7.42;81.75;100930.56;5021205;28;20849;-74
2023/03/31 07:53:29;;;;;;;4.45;1.50;;;;;;;7.42;81.51;100934.81;5019637;28;20060;-75
2023/03/31 07:55:58;;;;;;;6.82;1.20;;;;;;;7.42;81.46;100932.22;5022029;28;20046;-74
2023/03/31 07:58:28;;;;;;;7.70;1.42;;;;;;;7.45;81.08;100935.84;5021283;28;20049;-74
2023/03/31 08:00:57;;;;;;;8.32;1.80;;;;;;;7.49;81.09;100931.69;5015859;28;20057;-73
2023/03/31 08:03:25;;;;;;;3.50;1.10;;;;;;;7.46;81.35;100921.25;5019050;28;20073;-74
2023/03/31 08:05:54;;;;;;;6.15;1.63;;;;;;;7.50;81.77;100928.31;5025970;28;20072;-74
2023/03/31 08:08:23;;;;;;;10.85;1.50;;;;;;;7.45;81.71;100917.81;5021045;28;20049;-74
2023/03/31 08:10:52;;;;;;;5.63;1.70;;;;;;;7.50;81.09;100928.31;5016825;28;20046;-73
2023/03/31 08:13:20;;;;;;;6.97;1.38;;;;;;;7.50;81.08;100930.91;5021413;28;20631;-75
2023/03/31 08:15:50;;;;;;;11.82;1.23;;;;;;;7.51;81.49;100935.22;5025440;28;20571;-75
2023/03/31 08:18:19;;;;;;;2.72;1.27;;;;;;;7.50;81.10;100936.03;5023969;28;20076;-74
2023/03/31 08:20:49;;;;;;;7.55;1.30;;;;;;;7.51;80.87;100930.97;5021435;28;20562;-74
2023/03/31 08:23:17;;;;;;;5.05;0.88;;;;;;;7.52;81.12;100937.88;5014789;28;20056;-75
2023/03/31 08:25:46;;;;;;;3.67;1.23;;;;;;;7.54;82.41;100935.38;5023568;28;20089;-74
2023/03/31 08:28:14;;;;;;;5.47;1.10;;;;;;;7.52;82.24;100942.16;5023361;28;20095;-74
2023/03/31 08:30:43;;;;;;;2.70;1.05;;;;;;;7.52;82.64;100935.28;5019552;28;20129;-74
2023/03/31 08:33:13;;;;;;;6.05;1.27;;;;;;;7.49;83.27;100936.84;5029904;28;20120;-74
2023/03/31 08:35:41;;;;;;;3.97;1.20;;;;;;;7.48;83.55;100935.97;5026223;28;20512;-73
2023/03/31 08:38:10;;;;;;;7.63;1.42;;;;;;;7.49;84.20;100941.97;5023539;28;20855;-74
2023/03/31 08:40:42;;;;;;;5.40;0.88;;;;;;;7.47;83.04;100941.06;5028741;28;20556;-73
2023/03/31 08:43:15;;;;;;;4.07;0.95;;;;;;;7.47;83.42;100941.06;5026171;28;20124;-74
2023/03/31 08:45:47;;;;;;;7.20;1.77;;;;;;;7.48;83.49;100951.41;5020502;28;20510;-74
2023/03/31 08:48:25;;;;;;;10.40;1.43;;;;;;;7.49;83.21;100942.88;5026852;28;21157;-74
2023/03/31 08:50:58;;;;;;;8.25;1.30;;;;;;;7.49;83.39;100944.56;5020685;28;20154;-74
2023/03/31 08:53:29;;;;;;;7.05;1.33;;;;;;;7.48;84.13;100946.25;5021586;28;20047;-74
2023/03/31 08:56:00;;;;;;;3.50;1.00;;;;;;;7.46;84.13;100947.00;5024361;28;20235;-73
2023/03/31 08:58:39;;;;;;;4.07;1.30;;;;;;;7.43;85.05;100947.75;5028034;28;20105;-75
2023/03/31 09:01:19;;;;;;;4.22;0.95;;;;;;;7.43;84.61;100945.19;5021663;28;20054;-74
2023/03/31 09:04:01;;;;;;;14.82;1.45;;;;;;;7.42;85.41;100950.25;5025480;28;20052;-74
2023/03/31 09:06:37;;;;;;;4.50;1.75;;;;;;;7.45;85.31;100952.97;5023558;28;20549;-75
2023/03/31 09:09:10;;;;;;;2.63;1.00;;;;;;;7.44;85.03;100948.63;5023769;28;20044;-74
2023/03/31 09:11:46;;;;;;;6.30;2.03;;;;;;;7.42;84.98;100950.25;5026434;28;20048;-75
2023/03/31 09:14:27;;;;;;;5.70;1.10;;;;;;;7.40;85.53;100952.78;5025315;28;20060;-74
2023/03/31 09:17:03;;;;;;;6.50;2.03;;;;;;;7.37;84.64;100956.88;5022042;28;20987;-74
2023/03/31 09:19:39;;;;;;;4.80;1.40;;;;;;;7.37;84.51;100954.31;5024407;28;20045;-75
2023/03/31 09:22:14;;;;;;;5.75;1.73;;;;;;;7.34;84.59;100958.50;5018818;28;20056;-75
2023/03/31 09:24:53;;;;;;;6.72;1.85;;;;;;;7.31;84.54;100953.22;5027860;28;20093;-75
2023/03/31 09:27:22;;;;;;;6.70;1.20;;;;;;;7.30;84.20;100955.72;5025512;28;20053;-75
2023/03/31 09:29:54;;;;;;;1.95;0.90;;;;;;;7.28;85.37;100947.97;5025136;28;20128;-74
2023/03/31 09:32:25;;;;;;;10.82;1.48;;;;;;;7.28;85.23;100953.09;5025187;28;20047;-77
2023/03/31 09:35:01;;;;;;;3.47;1.43;;;;;;;7.28;84.81;100947.97;5025205;28;20041;-75
2023/03/31 09:37:33;;;;;;;11.45;1.30;;;;;;;7.27;84.86;100945.31;5024524;28;20111;-76
2023/03/31 09:40:06;;;;;;;4.80;1.60;;;;;;;7.26;85.19;100949.56;5030354;28;20045;-73
2023/03/31 09:42:35;;;;;;;2.33;0.95;;;;;;;7.29;85.26;100948.81;5022360;28;20053;-74
2023/03/31 09:45:03;;;;;;;8.52;1.38;;;;;;;7.28;85.28;100947.97;5027719;28;20136;-75
2023/03/31 09:47:38;;;;;;;4.43;1.17;;;;;;;7.24;85.39;100948.63;5024414;28;20046;-75
2023/03/31 09:50:10;;;;;;;9.63;1.50;;;;;;;7.28;85.54;100958.25;5025050;28;20045;-75
2023/03/31 09:52:42;;;;;;;1.02;0.85;;;;;;;7.27;85.35;100951.31;5022971;28;20043;-74
2023/03/31 09:55:21;;;;;;;4.30;1.35;;;;;;;7.28;85.06;100950.53;5024866;28;20057;-75
2023/03/31 09:57:49;;;;;;;5.22;1.48;;;;;;;7.29;84.35;100954.84;5025730;28;20065;-74
2023/03/31 10:00:20;;;;;;;4.72;1.63;;;;;;;7.30;84.79;100955.72;5021550;28;20118;-74
2023/03/31 10:02:51;;;;;;;4.20;1.58;;;;;;;7.29;85.04;100960.00;5022227;28;20100;-73
2023/03/31 10:05:28;;;;;;;1.98;0.80;;;;;;;7.30;85.37;100961.75;5024113;28;20315;-73
2023/03/31 10:08:20;;;;;;;3.40;1.23;;;;;;;7.28;84.96;100963.41;5019067;28;20050;-74
2023/03/31 10:10:51;;;;;;;10.20;1.80;;;;;;;7.31;84.48;100957.50;5022159;28;20152;-75
2023/03/31 10:13:24;;;;;;;2.40;1.02;;;;;;;7.30;84.81;100966.91;5015729;28;20079;-74
2023/03/31 10:15:55;;;;;;;7.20;1.25;;;;;;;7.31;84.97;100960.09;5021146;28;20133;-74
2023/03/31 10:18:32;;;;;;;2.53;1.05;;;;;;;7.25;85.56;100958.09;5023576;28;20136;-75
2023/03/31 10:21:04;;;;;;;6.82;2.13;;;;;;;7.30;85.16;100966.03;5026307;28;20045;-74
2023/03/31 10:23:34;;;;;;;3.33;1.10;;;;;;;7.30;84.98;100974.63;5026606;28;20149;-73
2023/03/31 10:26:04;;;;;;;5.93;1.38;;;;;;;7.31;85.39;100960.09;5018209;28;20108;-74
2023/03/31 10:28:36;;;;;;;7.88;1.33;;;;;;;7.30;85.70;100956.59;5024149;28;20704;-75
2023/03/31 10:31:07;;;;;;;4.95;1.50;;;;;;;7.30;85.60;100961.75;5019135;28;20050;-75
2023/03/31 10:33:43;;;;;;;6.80;1.58;;;;;;;7.31;86.48;100954.94;5019783;28;20064;-74
2023/03/31 10:36:21;;;;;;;8.70;1.42;;;;;;;7.30;86.03;100958.31;5020868;28;20052;-74
2023/03/31 10:38:51;;;;;;;6.88;1.70;;;;;;;7.31;86.04;100953.22;5019051;28;20065;-74
2023/03/31 10:41:22;;;;;;;4.88;1.58;;;;;;;7.32;86.02;100957.56;5021198;28;20140;-74
2023/03/31 10:43:53;;;;;;;5.55;0.85;;;;;;;7.33;86.47;100950.75;5029603;28;20050;-74
2023/03/31 10:46:22;;;;;;;4.25;1.40;;;;;;;7.35;85.70;100949.09;5022184;28;20132;-74
2023/03/31 10:48:52;;;;;;;5.47;1.30;;;;;;;7.37;86.70;100956.88;5022806;28;20053;-74
2023/03/31 10:51:26;;;;;;;3.08;2.08;;;;;;;7.36;86.83;100958.59;5013010;28;20060;-74
2023/03/31 10:53:56;;;;;;;3.05;1.35;;;;;;;7.34;86.66;100953.38;5017087;28;20088;-73
2023/03/31 10:56:38;;;;;;;6.88;1.38;;;;;;;7.33;86.82;100966.19;5017206;28;20061;-74
2023/03/31 10:59:21;;;;;;;9.10;2.13;;;;;;;7.34;86.89;100957.63;5026737;28;20046;-74
2023/03/31 11:02:01;;;;;;;4.63;1.20;;;;;;;7.36;86.78;100961.16;5026386;28;20140;-73
2023/03/31 11:04:49;;;;;;;6.13;1.30;;;;;;;7.36;86.13;100960.28;5025805;28;20046;-73
2023/03/31 11:07:42;;;;;;;8.07;1.40;;;;;;;7.33;87.67;100967.06;5023784;28;20045;-74
2023/03/31 11:10:35;;;;;;;2.83;1.30;;;;;;;7.29;87.33;100965.16;5015531;28;20056;-74
2023/03/31 11:13:12;;;;;;;1.87;0.90;;;;;;;7.28;88.30;100965.06;5027525;28;20485;-74
2023/03/31 11:15:49;;;;;;;3.20;1.20;;;;;;;7.26;88.52;100959.88;5019675;28;20050;-74
2023/03/31 11:18:36;;;;;;;10.90;1.58;;;;;;;7.23;89.68;100959.72;5018799;28;20077;-74
2023/03/31 11:21:19;;;;;;;3.92;1.48;;;;;;;7.22;89.93;100973.41;5020376;28;20502;-74
2023/03/31 11:23:55;;;;;;;1.77;1.13;;;;;;;7.21;89.70;100955.31;5023310;28;20057;-74
2023/03/31 11:26:33;;;;;;;7.60;2.08;;;;;;;7.20;89.40;100959.56;5017868;28;20049;-75
2023/03/31 11:29:17;;;;;;;3.47;1.30;;;;;;;7.24;89.12;100958.91;5016111;28;20133;-73
2023/03/31 11:31:54;;;;;;;7.03;1.52;;;;;;;7.25;88.88;100955.50;5015358;28;20060;-72
2023/03/31 11:34:46;;;;;;;7.95;1.52;;;;;;;7.26;90.17;100965.00;5019221;28;20049;-74
2023/03/31 11:37:40;;;;;;;4.18;1.58;;;;;;;7.26;89.41;100957.28;5020605;28;20055;-74
2023/03/31 11:40:22;;;;;;;6.10;1.63;;;;;;;7.26;89.79;100959.88;5031011;28;20044;-75
2023/03/31 11:42:56;;;;;;;2.45;1.65;;;;;;;7.24;90.68;100951.19;5020586;28;20042;-75
2023/03/31 11:45:29;;;;;;;6.35;1.98;;;;;;;7.22;91.22;100962.22;5018952;28;20049;-74
2023/03/31 11:48:03;;;;;;;4.97;1.30;;;;;;;7.20;90.77;100964.72;5022890;28;20334;-74
2023/03/31 11:50:37;;;;;;;3.30;1.30;;;;;;;7.19;91.90;100957.78;5024289;28;20049;-74
2023/03/31 11:53:13;;;;;;;5.50;1.65;;;;;;;7.18;91.84;100952.59;5019804;28;20052;-74
2023/03/31 11:55:46;;;;;;;13.63;1.50;;;;;;;7.17;91.80;100954.31;5021912;28;20490;-74
2023/03/31 11:58:18;;;;;;;2.88;1.35;;;;;;;7.16;92.19;100957.66;5027910;28;20133;-73